sensor_id;sensor_type;location;lat;lon;timestamp;temperature;humidity
72814;DHT22;60945;48.516;-2.768;2022-12-07T00:00:52;3.90;79.50
72814;DHT22;60945;48.516;-2.768;2022-12-07T00:03:18;3.90;79.30
72814;DHT22;60945;48.516;-2.768;2022-12-07T00:05:44;4.00;79.20
72814;DHT22;60945;48.516;-2.768;2022-12-07T00:08:09;4.00;78.80
72814;DHT22;60945;48.516;-2.768;2022-12-07T00:10:35;4.00;79.10
72814;DHT22;60945;48.516;-2.768;2022-12-07T00:13:01;4.00;78.90
72814;DHT22;60945;48.516;-2.768;2022-12-07T00:15:26;4.00;79.00
72814;DHT22;60945;48.516;-2.768;2022-12-07T00:17:52;4.00;79.00
72814;DHT22;60945;48.516;-2.768;2022-12-07T00:20:17;3.90;79.10
72814;DHT22;60945;48.516;-2.768;2022-12-07T00:22:43;3.90;79.30
72814;DHT22;60945;48.516;-2.768;2022-12-07T00:25:09;4.00;78.80
72814;DHT22;60945;48.516;-2.768;2022-12-07T00:27:34;3.90;78.60
72814;DHT22;60945;48.516;-2.768;2022-12-07T00:30:00;3.90;78.70
72814;DHT22;60945;48.516;-2.768;2022-12-07T00:32:26;3.90;79.10
72814;DHT22;60945;48.516;-2.768;2022-12-07T00:34:54;3.90;79.30
72814;DHT22;60945;48.516;-2.768;2022-12-07T00:37:20;3.90;79.30
72814;DHT22;60945;48.516;-2.768;2022-12-07T00:39:46;3.90;79.60
72814;DHT22;60945;48.516;-2.768;2022-12-07T00:42:11;4.00;79.30
72814;DHT22;60945;48.516;-2.768;2022-12-07T00:44:37;3.90;79.50
72814;DHT22;60945;48.516;-2.768;2022-12-07T00:47:03;4.00;79.30
72814;DHT22;60945;48.516;-2.768;2022-12-07T00:49:31;4.00;79.00
72814;DHT22;60945;48.516;-2.768;2022-12-07T00:51:56;3.90;79.70
72814;DHT22;60945;48.516;-2.768;2022-12-07T00:54:24;3.80;79.30
72814;DHT22;60945;48.516;-2.768;2022-12-07T00:56:50;3.80;80.00
72814;DHT22;60945;48.516;-2.768;2022-12-07T00:59:15;3.80;80.10
72814;DHT22;60945;48.516;-2.768;2022-12-07T01:01:41;4.00;79.30
72814;DHT22;60945;48.516;-2.768;2022-12-07T01:04:07;4.00;78.60
72814;DHT22;60945;48.516;-2.768;2022-12-07T01:06:40;4.00;78.50
72814;DHT22;60945;48.516;-2.768;2022-12-07T01:09:06;4.00;79.00
72814;DHT22;60945;48.516;-2.768;2022-12-07T01:11:32;3.90;78.80
72814;DHT22;60945;48.516;-2.768;2022-12-07T01:13:59;3.90;78.70
72814;DHT22;60945;48.516;-2.768;2022-12-07T01:16:28;4.00;78.90
72814;DHT22;60945;48.516;-2.768;2022-12-07T01:18:55;3.90;78.80
72814;DHT22;60945;48.516;-2.768;2022-12-07T01:21:27;4.00;79.20
72814;DHT22;60945;48.516;-2.768;2022-12-07T01:23:52;4.10;78.30
72814;DHT22;60945;48.516;-2.768;2022-12-07T01:26:21;4.00;78.20
72814;DHT22;60945;48.516;-2.768;2022-12-07T01:28:47;4.00;78.50
72814;DHT22;60945;48.516;-2.768;2022-12-07T01:31:21;3.80;78.20
72814;DHT22;60945;48.516;-2.768;2022-12-07T01:33:52;3.70;78.50
72814;DHT22;60945;48.516;-2.768;2022-12-07T01:36:23;3.70;78.90
72814;DHT22;60945;48.516;-2.768;2022-12-07T01:38:52;3.70;78.60
72814;DHT22;60945;48.516;-2.768;2022-12-07T01:41:20;3.70;78.90
72814;DHT22;60945;48.516;-2.768;2022-12-07T01:46:48;4.00;78.60
72814;DHT22;60945;48.516;-2.768;2022-12-07T01:52:20;3.80;79.00
72814;DHT22;60945;48.516;-2.768;2022-12-07T01:54:44;3.90;78.80
72814;DHT22;60945;48.516;-2.768;2022-12-07T01:57:12;3.90;79.30
72814;DHT22;60945;48.516;-2.768;2022-12-07T01:59:38;3.60;78.60
72814;DHT22;60945;48.516;-2.768;2022-12-07T02:02:13;3.70;80.50
72814;DHT22;60945;48.516;-2.768;2022-12-07T02:04:43;4.10;79.20
72814;DHT22;60945;48.516;-2.768;2022-12-07T02:07:11;4.30;78.10
72814;DHT22;60945;48.516;-2.768;2022-12-07T02:09:37;4.30;77.80
72814;DHT22;60945;48.516;-2.768;2022-12-07T02:12:04;4.40;77.40
72814;DHT22;60945;48.516;-2.768;2022-12-07T02:14:30;4.60;77.00
72814;DHT22;60945;48.516;-2.768;2022-12-07T02:17:10;4.70;76.30
72814;DHT22;60945;48.516;-2.768;2022-12-07T02:20:03;4.60;76.30
72814;DHT22;60945;48.516;-2.768;2022-12-07T02:28:27;4.20;77.80
72814;DHT22;60945;48.516;-2.768;2022-12-07T02:30:56;4.40;76.90
72814;DHT22;60945;48.516;-2.768;2022-12-07T02:35:57;3.90;77.30
72814;DHT22;60945;48.516;-2.768;2022-12-07T02:38:47;3.80;77.90
72814;DHT22;60945;48.516;-2.768;2022-12-07T02:41:18;3.80;77.70
72814;DHT22;60945;48.516;-2.768;2022-12-07T02:43:56;3.60;78.20
72814;DHT22;60945;48.516;-2.768;2022-12-07T02:46:29;3.20;78.50
72814;DHT22;60945;48.516;-2.768;2022-12-07T02:48:56;3.10;80.70
72814;DHT22;60945;48.516;-2.768;2022-12-07T02:51:25;3.10;80.20
72814;DHT22;60945;48.516;-2.768;2022-12-07T02:53:51;3.40;80.00
72814;DHT22;60945;48.516;-2.768;2022-12-07T02:56:30;3.70;78.50
72814;DHT22;60945;48.516;-2.768;2022-12-07T03:11:03;4.20;76.40
72814;DHT22;60945;48.516;-2.768;2022-12-07T03:13:41;4.20;76.00
72814;DHT22;60945;48.516;-2.768;2022-12-07T03:19:11;3.60;77.20
72814;DHT22;60945;48.516;-2.768;2022-12-07T03:21:41;3.60;78.20
72814;DHT22;60945;48.516;-2.768;2022-12-07T03:24:30;3.90;76.80
72814;DHT22;60945;48.516;-2.768;2022-12-07T03:27:10;4.10;76.90
72814;DHT22;60945;48.516;-2.768;2022-12-07T03:29:42;4.10;76.00
72814;DHT22;60945;48.516;-2.768;2022-12-07T03:32:30;4.30;76.10
72814;DHT22;60945;48.516;-2.768;2022-12-07T03:35:28;4.50;75.60
72814;DHT22;60945;48.516;-2.768;2022-12-07T03:37:57;4.50;74.80
72814;DHT22;60945;48.516;-2.768;2022-12-07T03:41:00;4.70;74.90
72814;DHT22;60945;48.516;-2.768;2022-12-07T03:43:29;4.60;74.50
72814;DHT22;60945;48.516;-2.768;2022-12-07T03:48:59;4.80;74.20
72814;DHT22;60945;48.516;-2.768;2022-12-07T03:51:40;4.70;74.10
72814;DHT22;60945;48.516;-2.768;2022-12-07T03:57:28;4.70;74.60
72814;DHT22;60945;48.516;-2.768;2022-12-07T03:59:56;4.70;74.20
72814;DHT22;60945;48.516;-2.768;2022-12-07T04:02:27;4.60;74.70
72814;DHT22;60945;48.516;-2.768;2022-12-07T04:04:53;4.70;75.20
72814;DHT22;60945;48.516;-2.768;2022-12-07T04:07:18;4.70;74.50
72814;DHT22;60945;48.516;-2.768;2022-12-07T04:09:44;4.70;74.80
72814;DHT22;60945;48.516;-2.768;2022-12-07T04:12:10;4.90;75.00
72814;DHT22;60945;48.516;-2.768;2022-12-07T04:14:35;4.90;74.50
72814;DHT22;60945;48.516;-2.768;2022-12-07T04:17:01;4.80;74.70
72814;DHT22;60945;48.516;-2.768;2022-12-07T04:19:31;4.70;74.30
72814;DHT22;60945;48.516;-2.768;2022-12-07T04:22:03;4.70;74.70
72814;DHT22;60945;48.516;-2.768;2022-12-07T04:24:29;4.80;74.60
72814;DHT22;60945;48.516;-2.768;2022-12-07T04:26:55;4.90;74.60
72814;DHT22;60945;48.516;-2.768;2022-12-07T04:29:22;4.90;73.80
72814;DHT22;60945;48.516;-2.768;2022-12-07T04:31:48;4.70;74.50
72814;DHT22;60945;48.516;-2.768;2022-12-07T04:34:14;4.70;74.60
72814;DHT22;60945;48.516;-2.768;2022-12-07T04:36:40;4.80;74.20
72814;DHT22;60945;48.516;-2.768;2022-12-07T04:39:07;4.60;74.80
72814;DHT22;60945;48.516;-2.768;2022-12-07T04:41:34;4.80;75.00
72814;DHT22;60945;48.516;-2.768;2022-12-07T04:44:02;4.90;74.30
72814;DHT22;60945;48.516;-2.768;2022-12-07T04:46:30;5.00;74.20
72814;DHT22;60945;48.516;-2.768;2022-12-07T04:48:56;4.80;74.70
72814;DHT22;60945;48.516;-2.768;2022-12-07T04:51:24;4.90;74.70
72814;DHT22;60945;48.516;-2.768;2022-12-07T04:53:51;5.00;75.00
72814;DHT22;60945;48.516;-2.768;2022-12-07T04:56:20;5.00;74.20
72814;DHT22;60945;48.516;-2.768;2022-12-07T04:58:47;4.90;75.00
72814;DHT22;60945;48.516;-2.768;2022-12-07T05:01:15;5.00;75.30
72814;DHT22;60945;48.516;-2.768;2022-12-07T05:03:41;4.90;75.00
72814;DHT22;60945;48.516;-2.768;2022-12-07T05:06:07;5.00;74.50
72814;DHT22;60945;48.516;-2.768;2022-12-07T05:08:34;4.80;75.20
72814;DHT22;60945;48.516;-2.768;2022-12-07T05:11:00;4.80;74.50
72814;DHT22;60945;48.516;-2.768;2022-12-07T05:13:28;4.80;75.70
72814;DHT22;60945;48.516;-2.768;2022-12-07T05:15:53;5.10;75.20
72814;DHT22;60945;48.516;-2.768;2022-12-07T05:18:21;5.10;75.00
72814;DHT22;60945;48.516;-2.768;2022-12-07T05:20:48;5.00;74.80
72814;DHT22;60945;48.516;-2.768;2022-12-07T05:23:14;4.70;76.40
72814;DHT22;60945;48.516;-2.768;2022-12-07T05:25:40;4.90;75.70
72814;DHT22;60945;48.516;-2.768;2022-12-07T05:28:05;4.90;75.50
72814;DHT22;60945;48.516;-2.768;2022-12-07T05:30:32;5.00;75.00
72814;DHT22;60945;48.516;-2.768;2022-12-07T05:32:57;4.80;75.10
72814;DHT22;60945;48.516;-2.768;2022-12-07T05:35:24;4.50;75.20
72814;DHT22;60945;48.516;-2.768;2022-12-07T05:37:49;4.40;75.30
72814;DHT22;60945;48.516;-2.768;2022-12-07T05:40:15;4.40;76.00
72814;DHT22;60945;48.516;-2.768;2022-12-07T05:42:41;4.30;76.20
72814;DHT22;60945;48.516;-2.768;2022-12-07T05:45:09;4.30;76.00
72814;DHT22;60945;48.516;-2.768;2022-12-07T05:47:35;4.30;76.40
72814;DHT22;60945;48.516;-2.768;2022-12-07T05:50:01;4.20;76.40
72814;DHT22;60945;48.516;-2.768;2022-12-07T05:52:26;4.00;76.70
72814;DHT22;60945;48.516;-2.768;2022-12-07T05:54:52;3.90;77.00
72814;DHT22;60945;48.516;-2.768;2022-12-07T05:57:18;3.80;77.30
72814;DHT22;60945;48.516;-2.768;2022-12-07T05:59:44;3.80;77.40
72814;DHT22;60945;48.516;-2.768;2022-12-07T06:02:14;3.80;77.50
72814;DHT22;60945;48.516;-2.768;2022-12-07T06:04:45;3.80;77.50
72814;DHT22;60945;48.516;-2.768;2022-12-07T06:07:12;3.90;76.90
72814;DHT22;60945;48.516;-2.768;2022-12-07T06:09:38;3.90;76.80
72814;DHT22;60945;48.516;-2.768;2022-12-07T06:12:04;3.70;76.90
72814;DHT22;60945;48.516;-2.768;2022-12-07T06:14:49;3.90;77.10
72814;DHT22;60945;48.516;-2.768;2022-12-07T06:17:15;4.00;76.30
72814;DHT22;60945;48.516;-2.768;2022-12-07T06:19:41;4.00;76.50
72814;DHT22;60945;48.516;-2.768;2022-12-07T06:22:07;4.10;76.00
72814;DHT22;60945;48.516;-2.768;2022-12-07T06:24:35;4.10;75.80
72814;DHT22;60945;48.516;-2.768;2022-12-07T06:27:00;4.00;76.00
72814;DHT22;60945;48.516;-2.768;2022-12-07T06:29:26;4.10;75.90
72814;DHT22;60945;48.516;-2.768;2022-12-07T06:31:54;4.20;76.00
72814;DHT22;60945;48.516;-2.768;2022-12-07T06:34:21;4.20;76.20
72814;DHT22;60945;48.516;-2.768;2022-12-07T06:36:49;4.20;76.00
72814;DHT22;60945;48.516;-2.768;2022-12-07T06:39:18;4.40;75.40
72814;DHT22;60945;48.516;-2.768;2022-12-07T06:41:44;4.50;74.10
72814;DHT22;60945;48.516;-2.768;2022-12-07T06:44:09;4.50;75.00
72814;DHT22;60945;48.516;-2.768;2022-12-07T06:46:38;4.60;74.50
72814;DHT22;60945;48.516;-2.768;2022-12-07T06:49:04;4.40;74.70
72814;DHT22;60945;48.516;-2.768;2022-12-07T06:51:31;4.50;75.10
72814;DHT22;60945;48.516;-2.768;2022-12-07T06:54:03;4.70;74.70
72814;DHT22;60945;48.516;-2.768;2022-12-07T06:56:31;4.70;74.50
72814;DHT22;60945;48.516;-2.768;2022-12-07T06:58:57;4.80;74.10
72814;DHT22;60945;48.516;-2.768;2022-12-07T07:01:23;4.90;73.70
72814;DHT22;60945;48.516;-2.768;2022-12-07T07:03:51;4.80;74.10
72814;DHT22;60945;48.516;-2.768;2022-12-07T07:06:17;4.80;73.90
72814;DHT22;60945;48.516;-2.768;2022-12-07T07:08:43;4.80;73.90
72814;DHT22;60945;48.516;-2.768;2022-12-07T07:11:10;4.80;72.90
72814;DHT22;60945;48.516;-2.768;2022-12-07T07:13:38;4.60;73.50
72814;DHT22;60945;48.516;-2.768;2022-12-07T07:16:04;4.70;73.90
72814;DHT22;60945;48.516;-2.768;2022-12-07T07:18:30;4.60;74.20
72814;DHT22;60945;48.516;-2.768;2022-12-07T07:20:59;4.60;73.80
72814;DHT22;60945;48.516;-2.768;2022-12-07T07:23:25;4.50;73.70
72814;DHT22;60945;48.516;-2.768;2022-12-07T07:25:50;4.30;74.20
72814;DHT22;60945;48.516;-2.768;2022-12-07T07:28:16;4.20;74.60
72814;DHT22;60945;48.516;-2.768;2022-12-07T07:30:42;4.00;74.50
72814;DHT22;60945;48.516;-2.768;2022-12-07T07:33:09;3.60;76.10
72814;DHT22;60945;48.516;-2.768;2022-12-07T07:35:35;3.70;76.90
72814;DHT22;60945;48.516;-2.768;2022-12-07T07:38:01;3.90;76.20
72814;DHT22;60945;48.516;-2.768;2022-12-07T07:40:28;4.00;75.90
72814;DHT22;60945;48.516;-2.768;2022-12-07T07:42:57;4.00;76.50
72814;DHT22;60945;48.516;-2.768;2022-12-07T07:45:24;4.30;75.70
72814;DHT22;60945;48.516;-2.768;2022-12-07T07:47:50;4.40;75.60
72814;DHT22;60945;48.516;-2.768;2022-12-07T07:50:16;4.70;75.00
72814;DHT22;60945;48.516;-2.768;2022-12-07T07:52:42;4.80;73.90
72814;DHT22;60945;48.516;-2.768;2022-12-07T07:55:08;4.80;74.60
72814;DHT22;60945;48.516;-2.768;2022-12-07T07:57:35;5.00;74.40
72814;DHT22;60945;48.516;-2.768;2022-12-07T08:00:05;4.90;74.20
72814;DHT22;60945;48.516;-2.768;2022-12-07T08:02:31;4.80;73.70
72814;DHT22;60945;48.516;-2.768;2022-12-07T08:04:56;4.90;73.80
72814;DHT22;60945;48.516;-2.768;2022-12-07T08:07:22;4.90;74.00
72814;DHT22;60945;48.516;-2.768;2022-12-07T08:09:50;5.10;74.10
72814;DHT22;60945;48.516;-2.768;2022-12-07T08:12:15;5.30;73.80
72814;DHT22;60945;48.516;-2.768;2022-12-07T08:14:41;5.40;73.60
72814;DHT22;60945;48.516;-2.768;2022-12-07T08:17:07;5.30;73.40
72814;DHT22;60945;48.516;-2.768;2022-12-07T08:19:32;5.50;73.70
72814;DHT22;60945;48.516;-2.768;2022-12-07T08:21:58;5.70;72.70
72814;DHT22;60945;48.516;-2.768;2022-12-07T08:24:24;5.70;72.00
72814;DHT22;60945;48.516;-2.768;2022-12-07T08:26:50;5.60;72.60
72814;DHT22;60945;48.516;-2.768;2022-12-07T08:29:16;5.60;72.50
72814;DHT22;60945;48.516;-2.768;2022-12-07T08:31:42;5.50;72.40
72814;DHT22;60945;48.516;-2.768;2022-12-07T08:34:09;5.50;72.80
72814;DHT22;60945;48.516;-2.768;2022-12-07T08:36:36;5.60;73.30
72814;DHT22;60945;48.516;-2.768;2022-12-07T08:39:02;5.60;72.90
72814;DHT22;60945;48.516;-2.768;2022-12-07T08:41:27;5.50;72.40
72814;DHT22;60945;48.516;-2.768;2022-12-07T08:43:53;5.40;74.40
72814;DHT22;60945;48.516;-2.768;2022-12-07T08:46:23;5.60;75.00
72814;DHT22;60945;48.516;-2.768;2022-12-07T08:48:57;5.60;75.30
72814;DHT22;60945;48.516;-2.768;2022-12-07T08:51:24;5.40;74.80
72814;DHT22;60945;48.516;-2.768;2022-12-07T08:53:51;5.40;75.20
72814;DHT22;60945;48.516;-2.768;2022-12-07T08:56:18;5.50;74.30
72814;DHT22;60945;48.516;-2.768;2022-12-07T08:58:44;5.50;73.60
72814;DHT22;60945;48.516;-2.768;2022-12-07T09:01:10;5.00;74.20
72814;DHT22;60945;48.516;-2.768;2022-12-07T09:03:36;4.80;75.70
72814;DHT22;60945;48.516;-2.768;2022-12-07T09:06:01;4.90;76.10
72814;DHT22;60945;48.516;-2.768;2022-12-07T09:08:34;5.10;75.80
72814;DHT22;60945;48.516;-2.768;2022-12-07T09:11:02;5.30;75.10
72814;DHT22;60945;48.516;-2.768;2022-12-07T09:13:27;5.30;75.20
72814;DHT22;60945;48.516;-2.768;2022-12-07T09:15:53;5.30;74.90
72814;DHT22;60945;48.516;-2.768;2022-12-07T09:18:19;5.50;75.40
72814;DHT22;60945;48.516;-2.768;2022-12-07T09:20:44;5.80;75.40
72814;DHT22;60945;48.516;-2.768;2022-12-07T09:23:10;6.10;74.30
72814;DHT22;60945;48.516;-2.768;2022-12-07T09:25:36;6.40;74.00
72814;DHT22;60945;48.516;-2.768;2022-12-07T09:28:01;6.70;73.10
72814;DHT22;60945;48.516;-2.768;2022-12-07T09:30:27;6.60;72.20
72814;DHT22;60945;48.516;-2.768;2022-12-07T09:32:54;6.40;72.80
72814;DHT22;60945;48.516;-2.768;2022-12-07T09:35:20;6.30;73.20
72814;DHT22;60945;48.516;-2.768;2022-12-07T09:37:46;6.00;74.20
72814;DHT22;60945;48.516;-2.768;2022-12-07T09:40:13;6.00;74.60
72814;DHT22;60945;48.516;-2.768;2022-12-07T09:42:43;5.60;75.50
72814;DHT22;60945;48.516;-2.768;2022-12-07T09:45:39;5.50;76.10
72814;DHT22;60945;48.516;-2.768;2022-12-07T09:48:05;5.60;75.70
72814;DHT22;60945;48.516;-2.768;2022-12-07T09:50:34;5.60;76.10
72814;DHT22;60945;48.516;-2.768;2022-12-07T09:53:10;5.70;76.00
72814;DHT22;60945;48.516;-2.768;2022-12-07T09:55:41;5.70;76.00
72814;DHT22;60945;48.516;-2.768;2022-12-07T09:58:16;5.80;75.50
72814;DHT22;60945;48.516;-2.768;2022-12-07T10:00:43;5.90;75.10
72814;DHT22;60945;48.516;-2.768;2022-12-07T10:03:12;6.00;74.50
72814;DHT22;60945;48.516;-2.768;2022-12-07T10:05:45;6.30;73.20
72814;DHT22;60945;48.516;-2.768;2022-12-07T10:08:12;6.70;72.20
72814;DHT22;60945;48.516;-2.768;2022-12-07T10:10:38;7.10;70.70
72814;DHT22;60945;48.516;-2.768;2022-12-07T10:13:17;7.30;70.20
72814;DHT22;60945;48.516;-2.768;2022-12-07T10:15:49;7.30;69.70
72814;DHT22;60945;48.516;-2.768;2022-12-07T10:18:37;6.90;70.50
72814;DHT22;60945;48.516;-2.768;2022-12-07T10:21:09;6.20;73.00
72814;DHT22;60945;48.516;-2.768;2022-12-07T10:23:37;6.10;75.20
72814;DHT22;60945;48.516;-2.768;2022-12-07T10:26:21;6.30;74.70
72814;DHT22;60945;48.516;-2.768;2022-12-07T10:28:47;6.20;74.80
72814;DHT22;60945;48.516;-2.768;2022-12-07T10:31:19;6.20;75.00
72814;DHT22;60945;48.516;-2.768;2022-12-07T10:33:56;6.20;75.60
72814;DHT22;60945;48.516;-2.768;2022-12-07T10:36:35;6.30;75.60
72814;DHT22;60945;48.516;-2.768;2022-12-07T10:39:10;6.40;75.20
72814;DHT22;60945;48.516;-2.768;2022-12-07T10:44:31;6.80;74.40
72814;DHT22;60945;48.516;-2.768;2022-12-07T11:00:25;8.00;71.40
72814;DHT22;60945;48.516;-2.768;2022-12-07T11:05:42;9.00;67.10
72814;DHT22;60945;48.516;-2.768;2022-12-07T11:11:14;8.90;67.00
72814;DHT22;60945;48.516;-2.768;2022-12-07T11:16:21;9.00;67.10
72814;DHT22;60945;48.516;-2.768;2022-12-07T11:18:59;9.30;66.00
72814;DHT22;60945;48.516;-2.768;2022-12-07T11:24:24;9.70;64.20
72814;DHT22;60945;48.516;-2.768;2022-12-07T11:33:09;9.80;65.70
72814;DHT22;60945;48.516;-2.768;2022-12-07T11:38:52;10.10;64.30
72814;DHT22;60945;48.516;-2.768;2022-12-07T11:41:29;10.00;64.50
72814;DHT22;60945;48.516;-2.768;2022-12-07T11:49:51;9.60;65.30
72814;DHT22;60945;48.516;-2.768;2022-12-07T11:52:24;9.90;65.40
72814;DHT22;60945;48.516;-2.768;2022-12-07T11:54:52;10.20;64.30
72814;DHT22;60945;48.516;-2.768;2022-12-07T11:57:39;10.30;63.50
72814;DHT22;60945;48.516;-2.768;2022-12-07T12:00:15;10.50;62.80
72814;DHT22;60945;48.516;-2.768;2022-12-07T12:03:01;10.40;63.10
72814;DHT22;60945;48.516;-2.768;2022-12-07T12:05:30;9.90;63.10
72814;DHT22;60945;48.516;-2.768;2022-12-07T12:08:36;9.60;64.70
72814;DHT22;60945;48.516;-2.768;2022-12-07T12:23:06;10.40;62.50
72814;DHT22;60945;48.516;-2.768;2022-12-07T12:25:55;10.50;62.10
72814;DHT22;60945;48.516;-2.768;2022-12-07T12:33:48;10.20;63.80
72814;DHT22;60945;48.516;-2.768;2022-12-07T12:47:01;10.00;66.60
72814;DHT22;60945;48.516;-2.768;2022-12-07T12:49:35;9.90;66.30
72814;DHT22;60945;48.516;-2.768;2022-12-07T12:55:11;10.00;66.40
72814;DHT22;60945;48.516;-2.768;2022-12-07T12:57:38;10.00;65.30
72814;DHT22;60945;48.516;-2.768;2022-12-07T13:00:22;10.10;65.00
72814;DHT22;60945;48.516;-2.768;2022-12-07T13:02:54;10.40;64.80
72814;DHT22;60945;48.516;-2.768;2022-12-07T13:05:29;10.30;66.00
72814;DHT22;60945;48.516;-2.768;2022-12-07T13:08:15;9.90;66.10
72814;DHT22;60945;48.516;-2.768;2022-12-07T13:10:47;10.10;67.70
72814;DHT22;60945;48.516;-2.768;2022-12-07T13:15:44;10.40;66.90
72814;DHT22;60945;48.516;-2.768;2022-12-07T13:23:54;10.30;66.50
72814;DHT22;60945;48.516;-2.768;2022-12-07T13:29:14;10.20;68.00
72814;DHT22;60945;48.516;-2.768;2022-12-07T13:31:52;10.10;68.30
72814;DHT22;60945;48.516;-2.768;2022-12-07T13:36:52;10.30;69.40
72814;DHT22;60945;48.516;-2.768;2022-12-07T13:39:22;10.30;68.80
72814;DHT22;60945;48.516;-2.768;2022-12-07T13:44:48;10.50;68.30
72814;DHT22;60945;48.516;-2.768;2022-12-07T13:52:55;10.10;70.30
72814;DHT22;60945;48.516;-2.768;2022-12-07T13:55:23;10.30;68.50
72814;DHT22;60945;48.516;-2.768;2022-12-07T13:57:51;10.20;68.90
72814;DHT22;60945;48.516;-2.768;2022-12-07T14:00:35;10.40;68.20
72814;DHT22;60945;48.516;-2.768;2022-12-07T14:03:28;10.50;68.30
72814;DHT22;60945;48.516;-2.768;2022-12-07T14:08:39;10.50;66.80
72814;DHT22;60945;48.516;-2.768;2022-12-07T14:11:05;10.30;66.90
72814;DHT22;60945;48.516;-2.768;2022-12-07T14:13:42;10.40;67.60
72814;DHT22;60945;48.516;-2.768;2022-12-07T14:19:52;10.20;67.90
72814;DHT22;60945;48.516;-2.768;2022-12-07T14:22:30;10.50;68.20
72814;DHT22;60945;48.516;-2.768;2022-12-07T14:25:16;10.70;66.60
72814;DHT22;60945;48.516;-2.768;2022-12-07T14:27:53;10.60;66.80
72814;DHT22;60945;48.516;-2.768;2022-12-07T14:30:22;10.60;66.50
72814;DHT22;60945;48.516;-2.768;2022-12-07T14:32:52;10.30;67.30
72814;DHT22;60945;48.516;-2.768;2022-12-07T14:35:19;10.30;67.20
72814;DHT22;60945;48.516;-2.768;2022-12-07T14:37:47;10.30;67.10
72814;DHT22;60945;48.516;-2.768;2022-12-07T14:40:19;10.30;67.40
72814;DHT22;60945;48.516;-2.768;2022-12-07T14:42:47;10.00;68.00
72814;DHT22;60945;48.516;-2.768;2022-12-07T14:45:16;10.10;67.60
72814;DHT22;60945;48.516;-2.768;2022-12-07T14:47:44;10.10;68.30
72814;DHT22;60945;48.516;-2.768;2022-12-07T14:50:15;10.10;68.20
72814;DHT22;60945;48.516;-2.768;2022-12-07T14:52:49;10.10;68.00
72814;DHT22;60945;48.516;-2.768;2022-12-07T14:55:25;10.00;68.50
72814;DHT22;60945;48.516;-2.768;2022-12-07T14:57:51;10.00;68.30
72814;DHT22;60945;48.516;-2.768;2022-12-07T15:00:18;9.90;68.80
72814;DHT22;60945;48.516;-2.768;2022-12-07T15:02:45;9.80;69.00
72814;DHT22;60945;48.516;-2.768;2022-12-07T15:05:11;9.70;69.90
72814;DHT22;60945;48.516;-2.768;2022-12-07T15:07:37;9.80;70.10
72814;DHT22;60945;48.516;-2.768;2022-12-07T15:10:03;9.70;71.50
72814;DHT22;60945;48.516;-2.768;2022-12-07T15:12:29;9.80;71.70
72814;DHT22;60945;48.516;-2.768;2022-12-07T15:14:55;9.90;71.10
72814;DHT22;60945;48.516;-2.768;2022-12-07T15:17:21;9.80;71.50
72814;DHT22;60945;48.516;-2.768;2022-12-07T15:19:46;9.70;71.10
72814;DHT22;60945;48.516;-2.768;2022-12-07T15:22:12;9.50;72.70
72814;DHT22;60945;48.516;-2.768;2022-12-07T15:24:38;9.40;73.70
72814;DHT22;60945;48.516;-2.768;2022-12-07T15:27:04;9.50;73.50
72814;DHT22;60945;48.516;-2.768;2022-12-07T15:29:29;9.20;74.80
72814;DHT22;60945;48.516;-2.768;2022-12-07T15:31:55;9.30;74.50
72814;DHT22;60945;48.516;-2.768;2022-12-07T15:34:21;9.40;72.70
72814;DHT22;60945;48.516;-2.768;2022-12-07T15:36:48;9.30;72.80
72814;DHT22;60945;48.516;-2.768;2022-12-07T15:39:13;9.20;73.80
72814;DHT22;60945;48.516;-2.768;2022-12-07T15:41:39;9.20;74.00
72814;DHT22;60945;48.516;-2.768;2022-12-07T15:44:05;9.30;73.70
72814;DHT22;60945;48.516;-2.768;2022-12-07T15:46:49;9.50;72.60
72814;DHT22;60945;48.516;-2.768;2022-12-07T15:49:17;9.40;72.70
72814;DHT22;60945;48.516;-2.768;2022-12-07T15:51:44;9.30;73.40
72814;DHT22;60945;48.516;-2.768;2022-12-07T15:54:13;9.20;74.20
72814;DHT22;60945;48.516;-2.768;2022-12-07T15:56:41;9.00;74.10
72814;DHT22;60945;48.516;-2.768;2022-12-07T15:59:07;9.10;74.50
72814;DHT22;60945;48.516;-2.768;2022-12-07T16:01:33;8.80;73.90
72814;DHT22;60945;48.516;-2.768;2022-12-07T16:03:58;8.70;75.20
72814;DHT22;60945;48.516;-2.768;2022-12-07T16:06:24;8.60;75.30
72814;DHT22;60945;48.516;-2.768;2022-12-07T16:08:50;8.70;75.30
72814;DHT22;60945;48.516;-2.768;2022-12-07T16:11:16;8.80;74.80
72814;DHT22;60945;48.516;-2.768;2022-12-07T16:13:42;9.10;74.90
72814;DHT22;60945;48.516;-2.768;2022-12-07T16:16:11;9.10;74.20
72814;DHT22;60945;48.516;-2.768;2022-12-07T16:18:37;8.90;74.60
72814;DHT22;60945;48.516;-2.768;2022-12-07T16:21:03;8.50;75.30
72814;DHT22;60945;48.516;-2.768;2022-12-07T16:23:29;8.70;75.90
72814;DHT22;60945;48.516;-2.768;2022-12-07T16:26:03;8.90;75.70
72814;DHT22;60945;48.516;-2.768;2022-12-07T16:28:29;8.90;74.40
72814;DHT22;60945;48.516;-2.768;2022-12-07T16:31:06;8.90;74.90
72814;DHT22;60945;48.516;-2.768;2022-12-07T16:33:34;9.00;75.20
72814;DHT22;60945;48.516;-2.768;2022-12-07T16:36:00;9.00;75.40
72814;DHT22;60945;48.516;-2.768;2022-12-07T16:38:26;9.10;74.60
72814;DHT22;60945;48.516;-2.768;2022-12-07T16:40:53;9.10;74.00
72814;DHT22;60945;48.516;-2.768;2022-12-07T16:43:18;9.10;74.00
72814;DHT22;60945;48.516;-2.768;2022-12-07T16:45:45;8.80;75.50
72814;DHT22;60945;48.516;-2.768;2022-12-07T16:48:13;8.90;75.20
72814;DHT22;60945;48.516;-2.768;2022-12-07T16:50:39;9.00;75.60
72814;DHT22;60945;48.516;-2.768;2022-12-07T16:53:07;9.20;74.70
72814;DHT22;60945;48.516;-2.768;2022-12-07T16:55:36;9.00;74.30
72814;DHT22;60945;48.516;-2.768;2022-12-07T16:58:02;8.60;76.00
72814;DHT22;60945;48.516;-2.768;2022-12-07T17:00:27;8.60;75.80
72814;DHT22;60945;48.516;-2.768;2022-12-07T17:02:53;8.80;75.30
72814;DHT22;60945;48.516;-2.768;2022-12-07T17:05:20;8.80;74.80
72814;DHT22;60945;48.516;-2.768;2022-12-07T17:07:46;8.70;75.60
72814;DHT22;60945;48.516;-2.768;2022-12-07T17:10:11;8.60;76.80
72814;DHT22;60945;48.516;-2.768;2022-12-07T17:12:37;8.50;76.70
72814;DHT22;60945;48.516;-2.768;2022-12-07T17:15:03;8.50;77.00
72814;DHT22;60945;48.516;-2.768;2022-12-07T17:17:47;8.40;77.10
72814;DHT22;60945;48.516;-2.768;2022-12-07T17:20:16;8.40;77.10
72814;DHT22;60945;48.516;-2.768;2022-12-07T17:22:43;8.20;77.50
72814;DHT22;60945;48.516;-2.768;2022-12-07T17:25:09;7.80;78.70
72814;DHT22;60945;48.516;-2.768;2022-12-07T17:27:35;7.70;78.80
72814;DHT22;60945;48.516;-2.768;2022-12-07T17:30:02;7.70;78.50
72814;DHT22;60945;48.516;-2.768;2022-12-07T17:32:28;7.70;78.80
72814;DHT22;60945;48.516;-2.768;2022-12-07T17:34:53;7.50;79.00
72814;DHT22;60945;48.516;-2.768;2022-12-07T17:37:19;7.30;79.50
72814;DHT22;60945;48.516;-2.768;2022-12-07T17:39:44;7.20;79.50
72814;DHT22;60945;48.516;-2.768;2022-12-07T17:42:10;7.30;78.80
72814;DHT22;60945;48.516;-2.768;2022-12-07T17:44:54;7.20;79.00
72814;DHT22;60945;48.516;-2.768;2022-12-07T17:47:20;7.10;79.30
72814;DHT22;60945;48.516;-2.768;2022-12-07T17:49:46;7.10;79.50
72814;DHT22;60945;48.516;-2.768;2022-12-07T17:52:13;7.10;79.50
72814;DHT22;60945;48.516;-2.768;2022-12-07T17:54:57;6.90;79.50
72814;DHT22;60945;48.516;-2.768;2022-12-07T17:57:23;6.90;79.40
72814;DHT22;60945;48.516;-2.768;2022-12-07T17:59:49;7.30;79.50